Latest Weather Observations for Swanbourne

IDW60901

Issued at 4:55 pm WST Thursday 28 August 2014 (issued every 10 minutes, with the page automatically refreshed every 10 minutes)

About weather observations | Map of Perth area stations | Latest observations for Perth area | Other Formats
Station Details ID: 009215 Name: SWANBOURNE Lat: -31.96 Lon: 115.76 Height: 40.96 m
Data from the previous 72 hours. | See also: Recent months at Swanbourne
Date/Time
WST
Tmp

°C
App
Tmp
°C
Dew
Point
°C
Rel
Hum
%
Delta-T

°C
Wind Press
QNH
hPa
Press
MSL
hPa
Rain
since
9 am
mm
Dir
 
Spd
km/h
Gust
km/h
Spd
kts
Gust
kts
28/04:30pm 20.2 19.3 15.8 76 2.6 NNW 15 20 8 11 - - 0.0
28/04:00pm 20.4 19.0 15.6 74 2.9 NNW 17 22 9 12 - - 0.0
28/03:30pm 21.1 19.6 15.2 69 3.5 NNW 17 24 9 13 - - 0.0
28/03:00pm 21.3 19.6 14.7 66 3.9 NW 17 24 9 13 - - 0.0
28/02:30pm 22.4 19.3 13.5 57 5.2 NNW 22 30 12 16 - - 0.0
28/02:00pm 22.6 20.5 13.7 57 5.2 NW 17 26 9 14 - - 0.0
28/01:30pm 21.4 18.4 12.5 57 5.0 NNW 20 28 11 15 - - 0.0
28/01:00pm 22.5 19.3 11.9 51 6.0 NNW 20 30 11 16 - - 0.0
28/12:30pm 22.1 18.1 10.3 47 6.5 NNW 22 32 12 17 - - 0.0
28/12:00pm 21.7 18.8 11.1 51 5.9 NNW 17 28 9 15 - - 0.0
28/11:30am 20.5 16.8 9.4 49 5.9 NNW 19 26 10 14 - - 0.0
28/11:00am 20.3 16.7 8.3 46 6.3 N 17 26 9 14 - - 0.0
28/10:30am 19.9 16.3 8.3 47 6.0 N 17 26 9 14 - - 0.0
28/10:00am 18.7 15.0 7.8 49 5.6 N 17 28 9 15 - - 0.0
28/09:30am 17.1 14.7 8.5 57 4.4 N 11 17 6 9 - - 0.0
28/09:00am 16.5 13.7 8.5 59 4.1 N 13 19 7 10 - - 0.0
28/08:30am 15.7 12.9 8.4 62 3.7 NNE 13 17 7 9 - - 0.0
28/08:00am 15.2 12.7 8.2 63 3.5 NNE 11 17 6 9 - - 0.0
28/07:30am 14.4 11.9 8.1 66 3.1 NNE 11 17 6 9 - - 0.0
28/07:00am 14.1 11.6 8.1 67 3.0 NNE 11 19 6 10 - - 0.0
28/06:30am 14.0 11.1 8.0 67 3.0 NE 13 22 7 12 - - 0.0
28/06:00am 13.8 10.9 8.0 68 2.9 NE 13 22 7 12 - - 0.0
28/05:30am 13.6 10.6 7.8 68 2.9 NE 13 20 7 11 - - 0.0
28/05:00am 13.7 10.4 7.9 68 2.9 NE 15 26 8 14 - - 0.0
28/04:30am 13.6 11.1 8.4 71 2.6 NE 11 19 6 10 - - 0.0
28/04:00am 13.6 11.6 8.7 72 2.5 NE 9 13 5 7 - - 0.0
28/03:30am 13.1 11.2 9.0 76 2.1 ENE 9 11 5 6 - - 0.0
28/03:00am 13.0 11.1 9.1 77 2.0 ENE 9 13 5 7 - - 0.0
28/02:30am 13.0 10.7 9.1 77 2.0 ENE 11 15 6 8 - - 0.0
28/02:00am 12.9 11.0 9.2 78 1.9 E 9 11 5 6 - - 0.0
28/01:30am 12.9 11.1 9.4 79 1.8 E 9 11 5 6 - - 0.0
28/01:00am 13.0 11.2 9.4 79 1.8 E 9 13 5 7 - - 0.0
28/12:30am 13.0 11.2 9.4 79 1.8 ENE 9 15 5 8 - - 0.0
28/12:00am 12.6 10.8 9.6 82 1.5 ENE 9 15 5 8 - - 0.0
 
Date/Time
WST
Tmp

°C
App
Tmp
°C
Dew
Point
°C
Rel
Hum
%
Delta-T

°C
Wind Press
QNH
hPa
Press
MSL
hPa
Rain
since
9 am
mm
Dir
 
Spd
km/h
Gust
km/h
Spd
kts
Gust
kts
27/11:30pm 12.6 10.8 9.4 81 1.6 ENE 9 13 5 7 - - 0.0
27/11:00pm 12.6 10.8 9.4 81 1.6 ENE 9 13 5 7 - - 0.0
27/10:30pm 12.9 11.1 9.4 79 1.8 E 9 11 5 6 - - 0.0
27/10:00pm 13.4 11.7 9.8 79 1.9 ENE 9 11 5 6 - - 0.0
27/09:30pm 13.7 12.1 10.1 79 1.9 ENE 9 13 5 7 - - 0.0
27/09:00pm 14.1 12.5 10.1 77 2.1 ENE 9 11 5 6 - - 0.0
27/08:30pm 14.3 12.6 9.9 75 2.3 ENE 9 11 5 6 - - 0.0
27/08:00pm 14.7 13.6 10.1 74 2.4 ENE 6 6 3 3 - - 0.0
27/07:30pm 14.8 13.5 10.0 73 2.5 ENE 7 7 4 4 - - 0.0
27/07:00pm 15.3 15.4 10.1 71 2.7 CALM 0 0 0 0 - - 0.0
27/06:30pm 15.8 14.7 9.9 68 3.1 SW 6 7 3 4 - - 0.0
27/06:00pm 16.6 14.6 10.0 65 3.5 WSW 11 17 6 9 - - 0.0
27/05:30pm 17.2 14.8 10.1 63 3.8 WSW 13 20 7 11 - - 0.0
27/05:00pm 18.1 15.6 9.7 58 4.4 WSW 13 19 7 10 - - 0.0
27/04:30pm 19.4 17.1 10.4 56 4.9 W 13 22 7 12 - - 0.0
27/04:00pm 19.9 17.8 11.1 57 4.8 W 13 22 7 12 - - 0.0
27/03:30pm 20.8 19.2 12.8 60 4.5 W 13 17 7 9 - - 0.0
27/03:00pm 20.8 19.1 13.5 63 4.2 WNW 15 20 8 11 - - 0.0
27/02:30pm 20.3 18.9 13.3 64 4.0 WNW 13 19 7 10 - - 0.0
27/02:00pm 20.4 19.5 13.8 66 3.8 WNW 11 15 6 8 - - 0.0
27/01:30pm 19.4 19.1 13.3 68 3.5 WNW 7 11 4 6 - - 0.0
27/01:00pm 20.2 19.4 12.9 63 4.1 NNW 9 15 5 8 - - 0.0
27/12:30pm 19.1 18.5 12.4 65 3.7 WNW 7 13 4 7 - - 0.0
27/12:00pm 18.9 18.3 12.2 65 3.7 WNW 7 11 4 6 - - 0.0
27/11:30am 18.8 17.7 11.9 64 3.8 NW 9 13 5 7 - - 0.0
27/11:00am 19.4 18.4 12.2 63 4.0 NNW 9 13 5 7 - - 0.0
27/10:30am 18.7 18.1 11.8 64 3.8 N 6 11 3 6 - - 0.0
27/10:00am 16.7 16.6 12.0 74 2.6 ENE 4 9 2 5 - - 0.0
27/09:30am 16.8 16.1 11.9 73 2.7 ENE 7 15 4 8 - - 0.0
27/09:00am 15.8 14.6 11.6 76 2.3 ENE 9 15 5 8 - - 0.0
27/08:30am 14.2 12.4 10.8 80 1.8 E 11 17 6 9 - - 0.0
27/08:00am 13.7 12.3 11.0 84 1.4 ENE 9 15 5 8 - - 0.0
27/07:30am 12.6 11.2 11.0 90 0.8 E 9 13 5 7 - - 0.0
27/07:00am 12.0 10.5 10.6 91 0.7 E 9 11 5 6 - - 0.0
27/06:30am 12.0 10.8 10.2 89 0.9 E 7 9 4 5 - - 0.0
27/06:00am 12.4 11.2 10.3 87 1.1 ESE 7 9 4 5 - - 0.0
27/05:30am 12.4 11.3 10.1 86 1.2 ESE 6 7 3 4 - - 0.0
27/05:00am 12.4 11.1 9.8 84 1.3 ESE 7 7 4 4 - - 0.0
27/04:30am 12.7 10.9 9.5 81 1.6 ESE 9 11 5 6 - - 0.0
27/04:00am 13.1 11.7 9.4 78 1.9 ESE 7 9 4 5 - - 0.0
27/03:30am 12.9 11.5 8.8 76 2.1 SE 6 7 3 4 - - 0.0
27/03:00am 13.3 11.8 8.6 73 2.4 SE 6 7 3 4 - - 0.0
27/02:30am 12.9 11.2 8.2 73 2.3 SSE 7 7 4 4 - - 0.0
27/02:00am 12.6 10.7 7.7 72 2.4 SE 7 7 4 4 - - 0.0
27/01:30am 12.1 10.3 7.2 72 2.4 SSE 6 7 3 4 - - 0.0
27/01:00am 12.1 9.8 7.4 73 2.3 SSE 9 11 5 6 - - 0.0
27/12:30am 12.0 10.1 7.7 75 2.1 SE 7 11 4 6 - - 0.0
27/12:00am 11.4 9.5 7.7 78 1.8 SE 7 13 4 7 - - 0.0
 
Date/Time
WST
Tmp

°C
App
Tmp
°C
Dew
Point
°C
Rel
Hum
%
Delta-T

°C
Wind Press
QNH
hPa
Press
MSL
hPa
Rain
since
9 am
mm
Dir
 
Spd
km/h
Gust
km/h
Spd
kts
Gust
kts
26/11:30pm 11.4 9.8 8.1 80 1.6 SSE 6 9 3 5 - - 0.0
26/11:00pm 11.7 10.1 8.2 79 1.7 SE 6 7 3 4 - - 0.0
26/10:30pm 11.9 9.8 8.2 78 1.8 SSE 9 11 5 6 - - 0.0
26/10:00pm 12.3 10.8 9.1 81 1.6 SSE 7 13 4 7 - - 0.0
26/09:30pm 12.9 11.2 9.7 81 1.6 SSE 9 13 5 7 - - 0.0
26/09:00pm 13.4 12.2 10.2 81 1.7 SSE 7 9 4 5 - - 0.0
26/08:30pm 13.9 12.7 10.3 79 1.9 SSE 7 11 4 6 - - 0.0
26/08:00pm 14.7 13.2 10.7 77 2.1 S 9 15 5 8 - - 0.0
26/07:30pm 14.5 13.0 10.7 78 2.0 S 9 15 5 8 - - 0.0
26/07:00pm 14.4 13.2 10.2 76 2.2 S 7 11 4 6 - - 0.0
26/06:30pm 14.8 13.3 10.4 75 2.3 S 9 13 5 7 - - 0.0
26/06:00pm 15.4 13.9 10.4 72 2.6 S 9 11 5 6 - - 0.0
26/05:30pm 16.4 14.5 10.5 68 3.1 SSW 11 17 6 9 - - 0.0
26/05:00pm 17.5 15.4 11.1 66 3.5 SSW 13 19 7 10 - - 0.0
26/04:30pm 17.9 15.1 11.2 65 3.6 SSW 17 26 9 14 - - 0.0
26/04:00pm 18.2 15.3 11.0 63 3.9 SW 17 24 9 13 - - 0.0
26/03:30pm 18.9 16.6 11.9 64 3.9 SW 15 22 8 12 - - 0.0
26/03:00pm 19.0 16.6 11.3 61 4.2 SW 15 22 8 12 - - 0.0
26/02:30pm 19.1 16.3 11.2 60 4.3 SSW 17 22 9 12 - - 0.0
26/02:00pm 18.8 15.6 11.4 62 4.1 SSW 19 26 10 14 - - 0.0
26/01:30pm 19.2 15.9 11.7 62 4.1 SSW 20 32 11 17 - - 0.0
26/01:00pm 18.7 16.3 12.7 68 3.4 SSW 17 24 9 13 - - 0.0
26/12:30pm 18.6 17.2 12.1 66 3.6 S 11 19 6 10 - - 0.0
26/12:00pm 18.4 17.1 12.4 68 3.3 SSE 11 19 6 10 - - 0.0
26/11:30am 18.0 16.2 12.0 68 3.3 SSW 13 20 7 11 - - 0.0
26/11:00am 17.7 16.1 12.8 73 2.7 S 13 24 7 13 - - 0.0
26/10:30am 17.1 15.9 12.8 76 2.4 S 11 19 6 10 - - 0.0
26/10:00am 17.8 15.9 14.3 80 2.0 S 17 28 9 15 - - 0.0
26/09:30am 16.1 14.5 15.0 93 0.6 S 17 32 9 17 - - 0.0
26/09:00am 16.4 14.4 14.9 91 0.9 S 19 32 10 17 - - 0.4
26/08:30am 15.4 11.6 14.6 95 0.5 SSW 28 43 15 23 - - 0.4
26/08:00am 16.4 14.4 15.6 95 0.5 SW 20 28 11 15 - - 0.4
26/07:30am 16.8 14.9 15.7 93 0.6 SW 20 32 11 17 - - 0.4
26/07:00am 17.3 15.3 14.9 86 1.4 W 19 28 10 15 - - 0.0
26/06:30am 17.6 15.9 14.7 83 1.7 WSW 17 24 9 13 - - 0.0
26/06:00am 17.5 15.3 14.8 84 1.6 WSW 20 26 11 14 - - 0.0
26/05:30am 17.9 15.5 15.3 85 1.5 WSW 22 30 12 16 - - 0.0
26/05:00am 18.1 14.2 15.5 85 1.5 WSW 30 43 16 23 - - 0.0
26/04:30am 18.8 15.8 14.9 78 2.3 W 24 33 13 18 - - 0.0
26/04:00am 18.8 16.2 15.9 83 1.7 WNW 24 33 13 18 - - 0.0
26/03:30am 19.2 16.5 16.6 85 1.6 WNW 26 37 14 20 - - 0.0
26/03:00am 18.1 16.4 17.1 94 0.6 NW 22 37 12 20 - - 0.0
26/02:30am 17.2 17.1 15.9 92 0.8 NNW 11 17 6 9 - - 0.0
26/02:00am 17.3 16.7 15.6 90 1.0 N 13 19 7 10 - - 0.0
26/01:30am 17.5 16.9 15.7 89 1.1 N 13 17 7 9 - - 0.0
26/01:00am 17.3 16.9 15.1 87 1.3 N 11 17 6 9 - - 0.0
26/12:30am 17.4 16.7 15.4 88 1.2 N 13 19 7 10 - - 0.0
26/12:00am 17.6 16.8 15.2 86 1.4 N 13 19 7 10 - - 0.0
 
Date/Time
WST
Tmp

°C
App
Tmp
°C
Dew
Point
°C
Rel
Hum
%
Delta-T

°C
Wind Press
QNH
hPa
Press
MSL
hPa
Rain
since
9 am
mm
Dir
 
Spd
km/h
Gust
km/h
Spd
kts
Gust
kts
25/11:30pm 17.5 17.3 15.7 89 1.1 N 11 17 6 9 - - 0.0
25/11:00pm 17.7 17.6 15.9 89 1.1 N 11 15 6 8 - - 0.0
25/10:30pm 18.0 18.0 16.2 89 1.1 N 11 15 6 8 - - 0.0
25/10:00pm 18.1 18.1 16.3 89 1.1 N 11 17 6 9 - - 0.0
25/09:30pm 18.2 17.9 16.4 89 1.1 N 13 17 7 9 - - 0.0
25/09:00pm 17.9 17.7 16.8 93 0.7 N 13 17 7 9 - - 0.0
25/08:30pm 17.9 18.0 16.6 92 0.8 N 11 15 6 8 - - 0.0
25/08:00pm 17.9 17.7 15.7 87 1.3 N 11 15 6 8 - - 0.0
25/07:30pm 18.1 17.7 15.2 83 1.7 N 11 15 6 8 - - 0.0
25/07:00pm 18.3 17.3 14.6 79 2.1 N 13 19 7 10 - - 0.0
25/06:30pm 18.3 17.8 15.0 81 1.9 N 11 13 6 7 - - 0.0
25/06:00pm 18.9 18.4 14.8 77 2.4 N 11 17 6 9 - - 0.0
25/05:30pm 19.4 19.0 15.1 76 2.5 N 11 19 6 10 - - 0.0
25/05:00pm 20.0 19.8 15.6 76 2.6 N 11 19 6 10 - - 0.0

Latest Capital City Observations: Canberra | Sydney | Melbourne | Brisbane | Adelaide | Perth | Hobart | Darwin

Other Formats:

Comma delimited format used in spreadsheet applications
http://www.bom.gov.au/fwo/IDW60901/IDW60901.94614.axf

JavaScript Object Notation format (JSON) in row-major order
http://www.bom.gov.au/fwo/IDW60901/IDW60901.94614.json